sensor_id;sensor_type;location;lat;lon;timestamp;temperature;humidity
22795;DHT22;11564;50.920;11.612;2023-04-09T00:01:26;6.20;99.90
22795;DHT22;11564;50.920;11.612;2023-04-09T00:03:51;6.20;99.90
22795;DHT22;11564;50.920;11.612;2023-04-09T00:06:17;6.20;99.90
22795;DHT22;11564;50.920;11.612;2023-04-09T00:08:42;6.20;99.90
22795;DHT22;11564;50.920;11.612;2023-04-09T00:11:08;6.10;99.90
22795;DHT22;11564;50.920;11.612;2023-04-09T00:13:34;6.10;99.90
22795;DHT22;11564;50.920;11.612;2023-04-09T00:15:59;6.00;99.90
22795;DHT22;11564;50.920;11.612;2023-04-09T00:18:25;6.10;99.90
22795;DHT22;11564;50.920;11.612;2023-04-09T00:20:51;6.10;99.90
22795;DHT22;11564;50.920;11.612;2023-04-09T00:23:16;6.10;99.90
22795;DHT22;11564;50.920;11.612;2023-04-09T00:25:42;6.10;99.90
22795;DHT22;11564;50.920;11.612;2023-04-09T00:28:07;6.00;99.90
22795;DHT22;11564;50.920;11.612;2023-04-09T00:30:33;6.00;99.90
22795;DHT22;11564;50.920;11.612;2023-04-09T00:32:59;6.00;99.90
22795;DHT22;11564;50.920;11.612;2023-04-09T00:35:24;6.00;99.90
22795;DHT22;11564;50.920;11.612;2023-04-09T00:37:50;6.00;99.90
22795;DHT22;11564;50.920;11.612;2023-04-09T00:40:16;5.90;99.90
22795;DHT22;11564;50.920;11.612;2023-04-09T00:42:41;5.80;99.90
22795;DHT22;11564;50.920;11.612;2023-04-09T00:45:07;5.90;99.90
22795;DHT22;11564;50.920;11.612;2023-04-09T00:47:34;5.90;99.90
22795;DHT22;11564;50.920;11.612;2023-04-09T00:50:00;5.90;99.90
22795;DHT22;11564;50.920;11.612;2023-04-09T00:52:26;5.90;99.90
22795;DHT22;11564;50.920;11.612;2023-04-09T00:54:52;5.90;99.90
22795;DHT22;11564;50.920;11.612;2023-04-09T00:57:19;5.90;99.90
22795;DHT22;11564;50.920;11.612;2023-04-09T00:59:45;5.90;99.90
22795;DHT22;11564;50.920;11.612;2023-04-09T01:02:11;5.90;99.90
22795;DHT22;11564;50.920;11.612;2023-04-09T01:04:37;5.90;99.90
22795;DHT22;11564;50.920;11.612;2023-04-09T01:07:23;5.90;99.90
22795;DHT22;11564;50.920;11.612;2023-04-09T01:13:17;5.90;99.90
22795;DHT22;11564;50.920;11.612;2023-04-09T01:15:56;5.90;99.90
22795;DHT22;11564;50.920;11.612;2023-04-09T01:18:48;5.90;99.90
22795;DHT22;11564;50.920;11.612;2023-04-09T01:21:25;5.90;99.90
22795;DHT22;11564;50.920;11.612;2023-04-09T01:29:45;5.80;99.90
22795;DHT22;11564;50.920;11.612;2023-04-09T01:32:12;5.80;99.90
22795;DHT22;11564;50.920;11.612;2023-04-09T01:34:41;5.80;99.90
22795;DHT22;11564;50.920;11.612;2023-04-09T01:37:10;5.80;99.90
22795;DHT22;11564;50.920;11.612;2023-04-09T01:39:37;5.80;99.90
22795;DHT22;11564;50.920;11.612;2023-04-09T01:42:04;5.80;99.90
22795;DHT22;11564;50.920;11.612;2023-04-09T01:44:38;5.80;99.90
22795;DHT22;11564;50.920;11.612;2023-04-09T01:47:04;5.70;99.90
22795;DHT22;11564;50.920;11.612;2023-04-09T01:49:32;5.70;99.90
22795;DHT22;11564;50.920;11.612;2023-04-09T01:51:58;5.70;99.90
22795;DHT22;11564;50.920;11.612;2023-04-09T01:54:24;5.60;99.90
22795;DHT22;11564;50.920;11.612;2023-04-09T01:56:49;5.60;99.90
22795;DHT22;11564;50.920;11.612;2023-04-09T01:59:15;5.60;99.90
22795;DHT22;11564;50.920;11.612;2023-04-09T02:01:52;5.70;99.90
22795;DHT22;11564;50.920;11.612;2023-04-09T02:04:27;5.60;99.90
22795;DHT22;11564;50.920;11.612;2023-04-09T02:09:53;5.60;99.90
22795;DHT22;11564;50.920;11.612;2023-04-09T02:12:20;5.50;99.90
22795;DHT22;11564;50.920;11.612;2023-04-09T02:14:47;5.50;99.90
22795;DHT22;11564;50.920;11.612;2023-04-09T02:17:15;5.50;99.90
22795;DHT22;11564;50.920;11.612;2023-04-09T02:19:43;5.40;99.90
22795;DHT22;11564;50.920;11.612;2023-04-09T02:22:10;5.40;99.90
22795;DHT22;11564;50.920;11.612;2023-04-09T02:24:36;5.40;99.90
22795;DHT22;11564;50.920;11.612;2023-04-09T02:27:03;5.40;99.90
22795;DHT22;11564;50.920;11.612;2023-04-09T02:29:29;5.30;99.90
22795;DHT22;11564;50.920;11.612;2023-04-09T02:31:55;5.20;99.90
22795;DHT22;11564;50.920;11.612;2023-04-09T02:34:21;5.20;99.90
22795;DHT22;11564;50.920;11.612;2023-04-09T02:36:47;5.00;99.90
22795;DHT22;11564;50.920;11.612;2023-04-09T02:39:13;5.00;99.90
22795;DHT22;11564;50.920;11.612;2023-04-09T02:41:39;4.80;99.90
22795;DHT22;11564;50.920;11.612;2023-04-09T02:44:04;4.70;99.90
22795;DHT22;11564;50.920;11.612;2023-04-09T02:46:30;4.50;99.90
22795;DHT22;11564;50.920;11.612;2023-04-09T02:48:55;4.40;99.90
22795;DHT22;11564;50.920;11.612;2023-04-09T02:51:21;4.30;99.90
22795;DHT22;11564;50.920;11.612;2023-04-09T02:53:47;4.20;99.90
22795;DHT22;11564;50.920;11.612;2023-04-09T02:56:12;4.00;99.90
22795;DHT22;11564;50.920;11.612;2023-04-09T02:58:38;3.90;99.90
22795;DHT22;11564;50.920;11.612;2023-04-09T03:01:04;3.60;99.90
22795;DHT22;11564;50.920;11.612;2023-04-09T03:03:29;3.40;99.90
22795;DHT22;11564;50.920;11.612;2023-04-09T03:05:56;3.20;99.90
22795;DHT22;11564;50.920;11.612;2023-04-09T03:08:21;3.10;99.90
22795;DHT22;11564;50.920;11.612;2023-04-09T03:10:47;2.90;99.90
22795;DHT22;11564;50.920;11.612;2023-04-09T03:13:13;2.80;99.90
22795;DHT22;11564;50.920;11.612;2023-04-09T03:15:39;2.70;99.90
22795;DHT22;11564;50.920;11.612;2023-04-09T03:18:04;2.60;99.90
22795;DHT22;11564;50.920;11.612;2023-04-09T03:20:30;2.50;99.90
22795;DHT22;11564;50.920;11.612;2023-04-09T03:22:55;2.40;99.90
22795;DHT22;11564;50.920;11.612;2023-04-09T03:25:21;2.40;99.90
22795;DHT22;11564;50.920;11.612;2023-04-09T03:27:47;2.30;99.90
22795;DHT22;11564;50.920;11.612;2023-04-09T03:30:12;2.20;99.90
22795;DHT22;11564;50.920;11.612;2023-04-09T03:32:38;2.10;99.90
22795;DHT22;11564;50.920;11.612;2023-04-09T03:35:04;1.90;99.90
22795;DHT22;11564;50.920;11.612;2023-04-09T03:37:30;1.80;99.90
22795;DHT22;11564;50.920;11.612;2023-04-09T03:39:55;1.70;99.90
22795;DHT22;11564;50.920;11.612;2023-04-09T03:42:21;1.70;99.90
22795;DHT22;11564;50.920;11.612;2023-04-09T03:44:47;1.60;99.90
22795;DHT22;11564;50.920;11.612;2023-04-09T03:47:12;1.50;99.90
22795;DHT22;11564;50.920;11.612;2023-04-09T03:49:38;1.50;99.90
22795;DHT22;11564;50.920;11.612;2023-04-09T03:52:05;1.40;99.90
22795;DHT22;11564;50.920;11.612;2023-04-09T03:54:31;1.30;99.90
22795;DHT22;11564;50.920;11.612;2023-04-09T03:56:56;1.30;99.90
22795;DHT22;11564;50.920;11.612;2023-04-09T03:59:23;1.20;99.90
22795;DHT22;11564;50.920;11.612;2023-04-09T04:01:48;1.20;99.90
22795;DHT22;11564;50.920;11.612;2023-04-09T04:04:14;1.10;99.90
22795;DHT22;11564;50.920;11.612;2023-04-09T04:06:40;1.10;99.90
22795;DHT22;11564;50.920;11.612;2023-04-09T04:09:05;1.00;99.90
22795;DHT22;11564;50.920;11.612;2023-04-09T04:11:31;1.00;99.90
22795;DHT22;11564;50.920;11.612;2023-04-09T04:13:57;1.00;99.90
22795;DHT22;11564;50.920;11.612;2023-04-09T04:16:23;0.90;99.90
22795;DHT22;11564;50.920;11.612;2023-04-09T04:18:48;0.80;99.90
22795;DHT22;11564;50.920;11.612;2023-04-09T04:21:15;0.80;99.90
22795;DHT22;11564;50.920;11.612;2023-04-09T04:23:41;0.80;99.90
22795;DHT22;11564;50.920;11.612;2023-04-09T04:26:11;0.70;99.90
22795;DHT22;11564;50.920;11.612;2023-04-09T04:28:37;0.70;99.90
22795;DHT22;11564;50.920;11.612;2023-04-09T04:31:10;0.70;99.90
22795;DHT22;11564;50.920;11.612;2023-04-09T04:33:36;0.60;99.90
22795;DHT22;11564;50.920;11.612;2023-04-09T04:36:10;0.60;99.90
22795;DHT22;11564;50.920;11.612;2023-04-09T04:38:36;0.50;99.90
22795;DHT22;11564;50.920;11.612;2023-04-09T04:41:03;0.50;99.90
22795;DHT22;11564;50.920;11.612;2023-04-09T04:43:29;0.50;99.90
22795;DHT22;11564;50.920;11.612;2023-04-09T04:45:55;0.50;99.90
22795;DHT22;11564;50.920;11.612;2023-04-09T04:48:21;0.50;99.90
22795;DHT22;11564;50.920;11.612;2023-04-09T04:50:53;0.50;99.90
22795;DHT22;11564;50.920;11.612;2023-04-09T04:53:19;0.50;99.90
22795;DHT22;11564;50.920;11.612;2023-04-09T04:55:44;0.50;99.90
22795;DHT22;11564;50.920;11.612;2023-04-09T04:58:10;0.50;99.90
22795;DHT22;11564;50.920;11.612;2023-04-09T05:00:35;0.50;99.90
22795;DHT22;11564;50.920;11.612;2023-04-09T05:03:01;0.50;99.90
22795;DHT22;11564;50.920;11.612;2023-04-09T05:05:26;0.50;99.90
22795;DHT22;11564;50.920;11.612;2023-04-09T05:07:52;0.50;99.90
22795;DHT22;11564;50.920;11.612;2023-04-09T05:10:18;0.60;99.90
22795;DHT22;11564;50.920;11.612;2023-04-09T05:12:43;0.60;99.90
22795;DHT22;11564;50.920;11.612;2023-04-09T05:15:09;0.60;99.90
22795;DHT22;11564;50.920;11.612;2023-04-09T05:17:35;0.60;99.90
22795;DHT22;11564;50.920;11.612;2023-04-09T05:20:00;0.70;99.90
22795;DHT22;11564;50.920;11.612;2023-04-09T05:22:26;0.80;99.90
22795;DHT22;11564;50.920;11.612;2023-04-09T05:24:51;0.80;99.90
22795;DHT22;11564;50.920;11.612;2023-04-09T05:27:18;0.90;99.90
22795;DHT22;11564;50.920;11.612;2023-04-09T05:29:45;1.10;99.90
22795;DHT22;11564;50.920;11.612;2023-04-09T05:32:10;1.20;99.90
22795;DHT22;11564;50.920;11.612;2023-04-09T05:34:36;1.40;99.90
22795;DHT22;11564;50.920;11.612;2023-04-09T05:37:01;1.50;99.90
22795;DHT22;11564;50.920;11.612;2023-04-09T05:39:27;1.60;99.90
22795;DHT22;11564;50.920;11.612;2023-04-09T05:41:53;1.90;99.90
22795;DHT22;11564;50.920;11.612;2023-04-09T05:44:18;2.10;99.90
22795;DHT22;11564;50.920;11.612;2023-04-09T05:46:44;2.30;99.90
22795;DHT22;11564;50.920;11.612;2023-04-09T05:49:10;2.50;99.90
22795;DHT22;11564;50.920;11.612;2023-04-09T05:51:36;2.70;99.90
22795;DHT22;11564;50.920;11.612;2023-04-09T05:54:02;3.00;99.90
22795;DHT22;11564;50.920;11.612;2023-04-09T05:56:28;3.10;99.90
22795;DHT22;11564;50.920;11.612;2023-04-09T05:58:54;3.40;99.90
22795;DHT22;11564;50.920;11.612;2023-04-09T06:01:19;3.70;99.90
22795;DHT22;11564;50.920;11.612;2023-04-09T06:03:45;3.90;99.90
22795;DHT22;11564;50.920;11.612;2023-04-09T06:06:12;4.10;99.90
22795;DHT22;11564;50.920;11.612;2023-04-09T06:08:37;4.30;99.90
22795;DHT22;11564;50.920;11.612;2023-04-09T06:11:07;4.50;99.90
22795;DHT22;11564;50.920;11.612;2023-04-09T06:13:33;4.70;99.90
22795;DHT22;11564;50.920;11.612;2023-04-09T06:15:58;4.80;99.90
22795;DHT22;11564;50.920;11.612;2023-04-09T06:18:25;4.90;99.90
22795;DHT22;11564;50.920;11.612;2023-04-09T06:21:03;5.00;99.90
22795;DHT22;11564;50.920;11.612;2023-04-09T06:23:29;5.10;99.90
22795;DHT22;11564;50.920;11.612;2023-04-09T06:25:55;5.30;99.90
22795;DHT22;11564;50.920;11.612;2023-04-09T06:28:21;5.20;99.90
22795;DHT22;11564;50.920;11.612;2023-04-09T06:30:46;4.90;99.90
22795;DHT22;11564;50.920;11.612;2023-04-09T06:33:13;4.80;99.90
22795;DHT22;11564;50.920;11.612;2023-04-09T06:35:39;4.50;99.90
22795;DHT22;11564;50.920;11.612;2023-04-09T06:38:04;4.20;99.90
22795;DHT22;11564;50.920;11.612;2023-04-09T06:40:31;4.30;99.90
22795;DHT22;11564;50.920;11.612;2023-04-09T06:42:57;4.20;99.90
22795;DHT22;11564;50.920;11.612;2023-04-09T06:45:23;4.30;99.90
22795;DHT22;11564;50.920;11.612;2023-04-09T06:47:49;4.20;99.90
22795;DHT22;11564;50.920;11.612;2023-04-09T06:50:14;4.30;99.90
22795;DHT22;11564;50.920;11.612;2023-04-09T06:52:40;4.40;99.90
22795;DHT22;11564;50.920;11.612;2023-04-09T06:55:06;4.20;99.90
22795;DHT22;11564;50.920;11.612;2023-04-09T06:57:32;4.10;99.90
22795;DHT22;11564;50.920;11.612;2023-04-09T06:59:59;4.20;99.90
22795;DHT22;11564;50.920;11.612;2023-04-09T07:02:25;4.30;99.90
22795;DHT22;11564;50.920;11.612;2023-04-09T07:04:51;4.40;99.90
22795;DHT22;11564;50.920;11.612;2023-04-09T07:07:17;4.40;99.90
22795;DHT22;11564;50.920;11.612;2023-04-09T07:09:43;4.40;99.90
22795;DHT22;11564;50.920;11.612;2023-04-09T07:12:09;4.40;99.90
22795;DHT22;11564;50.920;11.612;2023-04-09T07:14:35;4.40;99.90
22795;DHT22;11564;50.920;11.612;2023-04-09T07:17:00;4.90;99.90
22795;DHT22;11564;50.920;11.612;2023-04-09T07:19:26;4.60;99.90
22795;DHT22;11564;50.920;11.612;2023-04-09T07:21:52;4.70;99.90
22795;DHT22;11564;50.920;11.612;2023-04-09T07:24:17;4.70;99.90
22795;DHT22;11564;50.920;11.612;2023-04-09T07:26:43;4.50;99.90
22795;DHT22;11564;50.920;11.612;2023-04-09T07:29:08;4.40;99.90
22795;DHT22;11564;50.920;11.612;2023-04-09T07:31:34;4.90;99.90
22795;DHT22;11564;50.920;11.612;2023-04-09T07:34:00;5.10;99.90
22795;DHT22;11564;50.920;11.612;2023-04-09T07:36:26;5.50;99.90
22795;DHT22;11564;50.920;11.612;2023-04-09T07:38:52;5.20;99.90
22795;DHT22;11564;50.920;11.612;2023-04-09T07:41:17;4.90;99.90
22795;DHT22;11564;50.920;11.612;2023-04-09T07:43:43;5.00;99.90
22795;DHT22;11564;50.920;11.612;2023-04-09T07:46:09;5.40;99.90
22795;DHT22;11564;50.920;11.612;2023-04-09T07:48:34;5.40;99.90
22795;DHT22;11564;50.920;11.612;2023-04-09T07:51:00;5.70;99.90
22795;DHT22;11564;50.920;11.612;2023-04-09T07:53:26;5.30;99.90
22795;DHT22;11564;50.920;11.612;2023-04-09T07:55:51;5.30;99.90
22795;DHT22;11564;50.920;11.612;2023-04-09T07:58:17;5.60;99.90
22795;DHT22;11564;50.920;11.612;2023-04-09T08:00:42;5.80;99.90
22795;DHT22;11564;50.920;11.612;2023-04-09T08:03:08;5.90;99.90
22795;DHT22;11564;50.920;11.612;2023-04-09T08:05:34;6.10;99.90
22795;DHT22;11564;50.920;11.612;2023-04-09T08:08:00;6.30;99.90
22795;DHT22;11564;50.920;11.612;2023-04-09T08:10:26;6.50;99.90
22795;DHT22;11564;50.920;11.612;2023-04-09T08:12:52;6.30;99.90
22795;DHT22;11564;50.920;11.612;2023-04-09T08:15:17;6.60;99.90
22795;DHT22;11564;50.920;11.612;2023-04-09T08:17:43;6.70;99.90
22795;DHT22;11564;50.920;11.612;2023-04-09T08:20:09;7.00;99.90
22795;DHT22;11564;50.920;11.612;2023-04-09T08:22:36;7.10;99.90
22795;DHT22;11564;50.920;11.612;2023-04-09T08:25:02;6.80;99.90
22795;DHT22;11564;50.920;11.612;2023-04-09T08:27:27;6.80;99.90
22795;DHT22;11564;50.920;11.612;2023-04-09T08:29:53;7.00;99.90
22795;DHT22;11564;50.920;11.612;2023-04-09T08:32:19;7.10;99.90
22795;DHT22;11564;50.920;11.612;2023-04-09T08:34:44;7.40;99.90
22795;DHT22;11564;50.920;11.612;2023-04-09T08:37:10;7.00;99.90
22795;DHT22;11564;50.920;11.612;2023-04-09T08:39:35;7.10;99.90
22795;DHT22;11564;50.920;11.612;2023-04-09T08:42:01;7.20;99.90
22795;DHT22;11564;50.920;11.612;2023-04-09T08:44:29;7.40;99.90
22795;DHT22;11564;50.920;11.612;2023-04-09T08:46:55;7.40;99.90
22795;DHT22;11564;50.920;11.612;2023-04-09T08:49:21;7.60;99.90
22795;DHT22;11564;50.920;11.612;2023-04-09T08:51:47;7.80;99.90
22795;DHT22;11564;50.920;11.612;2023-04-09T08:54:14;7.90;99.90
22795;DHT22;11564;50.920;11.612;2023-04-09T08:56:42;8.10;99.90
22795;DHT22;11564;50.920;11.612;2023-04-09T08:59:08;8.20;99.90
22795;DHT22;11564;50.920;11.612;2023-04-09T09:01:34;8.60;99.90
22795;DHT22;11564;50.920;11.612;2023-04-09T09:04:05;8.70;99.90
22795;DHT22;11564;50.920;11.612;2023-04-09T09:06:36;9.00;99.90
22795;DHT22;11564;50.920;11.612;2023-04-09T09:09:13;9.00;99.90
22795;DHT22;11564;50.920;11.612;2023-04-09T09:11:41;9.00;99.90
22795;DHT22;11564;50.920;11.612;2023-04-09T09:14:10;9.10;99.90
22795;DHT22;11564;50.920;11.612;2023-04-09T09:16:40;9.00;99.90
22795;DHT22;11564;50.920;11.612;2023-04-09T09:19:08;9.30;99.90
22795;DHT22;11564;50.920;11.612;2023-04-09T09:21:34;9.10;99.90
22795;DHT22;11564;50.920;11.612;2023-04-09T09:24:01;9.20;99.90
22795;DHT22;11564;50.920;11.612;2023-04-09T09:26:28;9.20;99.90
22795;DHT22;11564;50.920;11.612;2023-04-09T09:28:54;9.00;99.90
22795;DHT22;11564;50.920;11.612;2023-04-09T09:31:21;9.00;99.90
22795;DHT22;11564;50.920;11.612;2023-04-09T09:33:48;9.10;99.90
22795;DHT22;11564;50.920;11.612;2023-04-09T09:36:14;9.20;99.90
22795;DHT22;11564;50.920;11.612;2023-04-09T09:38:52;9.40;99.90
22795;DHT22;11564;50.920;11.612;2023-04-09T09:41:18;9.50;99.90
22795;DHT22;11564;50.920;11.612;2023-04-09T09:43:45;9.70;99.90
22795;DHT22;11564;50.920;11.612;2023-04-09T09:46:11;9.40;99.90
22795;DHT22;11564;50.920;11.612;2023-04-09T09:48:37;9.40;99.90
22795;DHT22;11564;50.920;11.612;2023-04-09T09:51:10;9.50;99.90
22795;DHT22;11564;50.920;11.612;2023-04-09T09:53:37;9.60;99.90
22795;DHT22;11564;50.920;11.612;2023-04-09T09:56:04;9.80;99.90
22795;DHT22;11564;50.920;11.612;2023-04-09T09:58:40;10.10;99.90
22795;DHT22;11564;50.920;11.612;2023-04-09T10:01:11;10.20;99.90
22795;DHT22;11564;50.920;11.612;2023-04-09T10:03:38;10.00;99.90
22795;DHT22;11564;50.920;11.612;2023-04-09T10:06:05;10.20;99.90
22795;DHT22;11564;50.920;11.612;2023-04-09T10:08:32;10.30;99.90
22795;DHT22;11564;50.920;11.612;2023-04-09T10:11:00;9.90;99.90
22795;DHT22;11564;50.920;11.612;2023-04-09T10:13:32;9.90;99.90
22795;DHT22;11564;50.920;11.612;2023-04-09T10:15:59;10.00;99.90
22795;DHT22;11564;50.920;11.612;2023-04-09T10:18:25;10.30;99.90
22795;DHT22;11564;50.920;11.612;2023-04-09T10:23:37;10.90;99.90
22795;DHT22;11564;50.920;11.612;2023-04-09T10:26:04;10.80;99.90
22795;DHT22;11564;50.920;11.612;2023-04-09T10:28:30;11.20;99.90
22795;DHT22;11564;50.920;11.612;2023-04-09T10:30:57;11.50;99.90
22795;DHT22;11564;50.920;11.612;2023-04-09T10:33:24;11.70;99.90
22795;DHT22;11564;50.920;11.612;2023-04-09T10:35:55;12.10;99.90
22795;DHT22;11564;50.920;11.612;2023-04-09T10:38:38;12.40;99.90
22795;DHT22;11564;50.920;11.612;2023-04-09T10:41:24;12.60;99.90
22795;DHT22;11564;50.920;11.612;2023-04-09T10:43:52;12.90;99.90
22795;DHT22;11564;50.920;11.612;2023-04-09T10:46:28;13.10;99.90
22795;DHT22;11564;50.920;11.612;2023-04-09T10:49:14;13.00;99.90
22795;DHT22;11564;50.920;11.612;2023-04-09T10:51:41;13.20;99.90
22795;DHT22;11564;50.920;11.612;2023-04-09T10:59:37;12.70;99.90
22795;DHT22;11564;50.920;11.612;2023-04-09T11:02:08;12.30;99.90
22795;DHT22;11564;50.920;11.612;2023-04-09T11:07:26;11.40;99.90
22795;DHT22;11564;50.920;11.612;2023-04-09T11:09:54;11.50;99.90
22795;DHT22;11564;50.920;11.612;2023-04-09T11:12:20;11.80;99.90
22795;DHT22;11564;50.920;11.612;2023-04-09T11:14:45;11.90;99.90
22795;DHT22;11564;50.920;11.612;2023-04-09T11:17:12;12.00;99.90
22795;DHT22;11564;50.920;11.612;2023-04-09T11:19:37;12.20;99.90
22795;DHT22;11564;50.920;11.612;2023-04-09T11:22:04;12.20;99.90
22795;DHT22;11564;50.920;11.612;2023-04-09T11:24:44;12.50;99.90
22795;DHT22;11564;50.920;11.612;2023-04-09T11:27:15;12.80;99.90
22795;DHT22;11564;50.920;11.612;2023-04-09T11:29:44;13.00;99.90
22795;DHT22;11564;50.920;11.612;2023-04-09T11:32:11;13.40;99.90
22795;DHT22;11564;50.920;11.612;2023-04-09T11:34:36;13.70;99.90
22795;DHT22;11564;50.920;11.612;2023-04-09T11:37:03;13.60;99.90
22795;DHT22;11564;50.920;11.612;2023-04-09T11:39:35;13.70;99.90
22795;DHT22;11564;50.920;11.612;2023-04-09T11:42:01;13.40;99.90
22795;DHT22;11564;50.920;11.612;2023-04-09T11:44:27;13.40;99.90
22795;DHT22;11564;50.920;11.612;2023-04-09T11:46:53;13.30;99.90
22795;DHT22;11564;50.920;11.612;2023-04-09T11:49:19;13.10;99.90
22795;DHT22;11564;50.920;11.612;2023-04-09T11:51:45;13.10;99.90
22795;DHT22;11564;50.920;11.612;2023-04-09T11:54:11;13.10;99.90
22795;DHT22;11564;50.920;11.612;2023-04-09T11:56:37;13.10;99.90
22795;DHT22;11564;50.920;11.612;2023-04-09T11:59:02;13.00;99.90
22795;DHT22;11564;50.920;11.612;2023-04-09T12:01:32;12.80;99.90
22795;DHT22;11564;50.920;11.612;2023-04-09T12:03:58;13.40;99.90
22795;DHT22;11564;50.920;11.612;2023-04-09T12:06:25;13.40;99.90
22795;DHT22;11564;50.920;11.612;2023-04-09T12:08:58;13.50;99.90
22795;DHT22;11564;50.920;11.612;2023-04-09T12:11:28;13.70;99.90
22795;DHT22;11564;50.920;11.612;2023-04-09T12:14:03;13.90;99.90
22795;DHT22;11564;50.920;11.612;2023-04-09T12:16:31;14.50;99.90
22795;DHT22;11564;50.920;11.612;2023-04-09T12:24:17;15.60;99.90
22795;DHT22;11564;50.920;11.612;2023-04-09T12:26:44;16.00;99.80
22795;DHT22;11564;50.920;11.612;2023-04-09T12:29:10;16.40;97.30
22795;DHT22;11564;50.920;11.612;2023-04-09T12:31:36;16.90;95.90
22795;DHT22;11564;50.920;11.612;2023-04-09T12:34:02;17.40;93.70
22795;DHT22;11564;50.920;11.612;2023-04-09T12:36:27;17.30;90.80
22795;DHT22;11564;50.920;11.612;2023-04-09T12:38:54;16.40;89.40
22795;DHT22;11564;50.920;11.612;2023-04-09T12:41:20;15.90;90.20
22795;DHT22;11564;50.920;11.612;2023-04-09T12:43:45;15.50;88.50
22795;DHT22;11564;50.920;11.612;2023-04-09T12:46:12;15.90;91.40
22795;DHT22;11564;50.920;11.612;2023-04-09T12:48:38;16.60;91.20
22795;DHT22;11564;50.920;11.612;2023-04-09T12:51:04;17.30;88.00
22795;DHT22;11564;50.920;11.612;2023-04-09T12:53:30;17.70;84.30
22795;DHT22;11564;50.920;11.612;2023-04-09T12:55:56;17.80;89.80
22795;DHT22;11564;50.920;11.612;2023-04-09T12:58:22;18.50;88.70
22795;DHT22;11564;50.920;11.612;2023-04-09T13:00:47;19.30;84.00
22795;DHT22;11564;50.920;11.612;2023-04-09T13:03:14;20.40;75.90
22795;DHT22;11564;50.920;11.612;2023-04-09T13:05:42;22.50;72.00
22795;DHT22;11564;50.920;11.612;2023-04-09T13:08:08;25.30;66.50
22795;DHT22;11564;50.920;11.612;2023-04-09T13:10:33;27.80;60.00
22795;DHT22;11564;50.920;11.612;2023-04-09T13:13:00;29.10;51.80
22795;DHT22;11564;50.920;11.612;2023-04-09T13:15:25;31.70;50.20
22795;DHT22;11564;50.920;11.612;2023-04-09T13:17:51;31.30;48.10
22795;DHT22;11564;50.920;11.612;2023-04-09T13:20:17;33.10;45.40
22795;DHT22;11564;50.920;11.612;2023-04-09T13:22:43;31.90;44.60
22795;DHT22;11564;50.920;11.612;2023-04-09T13:25:15;32.10;43.50
22795;DHT22;11564;50.920;11.612;2023-04-09T13:27:42;33.90;43.50
22795;DHT22;11564;50.920;11.612;2023-04-09T13:30:07;35.60;41.40
22795;DHT22;11564;50.920;11.612;2023-04-09T13:32:33;36.90;40.20
22795;DHT22;11564;50.920;11.612;2023-04-09T13:34:59;36.80;38.70
22795;DHT22;11564;50.920;11.612;2023-04-09T13:37:24;38.00;35.20
22795;DHT22;11564;50.920;11.612;2023-04-09T13:39:50;39.00;34.80
22795;DHT22;11564;50.920;11.612;2023-04-09T13:42:16;36.60;34.30
22795;DHT22;11564;50.920;11.612;2023-04-09T13:44:42;35.20;33.70
22795;DHT22;11564;50.920;11.612;2023-04-09T13:47:10;35.80;35.40
22795;DHT22;11564;50.920;11.612;2023-04-09T13:49:38;34.50;36.10
22795;DHT22;11564;50.920;11.612;2023-04-09T13:52:04;34.00;36.10
22795;DHT22;11564;50.920;11.612;2023-04-09T13:54:30;34.20;35.90
22795;DHT22;11564;50.920;11.612;2023-04-09T13:56:56;33.80;33.30
22795;DHT22;11564;50.920;11.612;2023-04-09T13:59:21;36.60;35.70
22795;DHT22;11564;50.920;11.612;2023-04-09T14:01:47;38.20;33.80
22795;DHT22;11564;50.920;11.612;2023-04-09T14:04:13;39.80;31.80
22795;DHT22;11564;50.920;11.612;2023-04-09T14:06:39;38.40;32.20
22795;DHT22;11564;50.920;11.612;2023-04-09T14:09:06;36.80;30.90
22795;DHT22;11564;50.920;11.612;2023-04-09T14:11:32;35.70;33.00
22795;DHT22;11564;50.920;11.612;2023-04-09T14:13:58;36.50;33.60
22795;DHT22;11564;50.920;11.612;2023-04-09T14:16:23;34.20;34.10
22795;DHT22;11564;50.920;11.612;2023-04-09T14:18:49;30.00;37.80
22795;DHT22;11564;50.920;11.612;2023-04-09T14:21:15;27.60;40.70
22795;DHT22;11564;50.920;11.612;2023-04-09T14:23:42;26.20;41.00
22795;DHT22;11564;50.920;11.612;2023-04-09T14:26:08;27.40;42.70
22795;DHT22;11564;50.920;11.612;2023-04-09T14:28:33;30.20;39.30
22795;DHT22;11564;50.920;11.612;2023-04-09T14:30:59;32.50;38.00
22795;DHT22;11564;50.920;11.612;2023-04-09T14:33:25;34.10;36.60
22795;DHT22;11564;50.920;11.612;2023-04-09T14:35:51;36.00;35.40
22795;DHT22;11564;50.920;11.612;2023-04-09T14:38:16;37.80;34.90
22795;DHT22;11564;50.920;11.612;2023-04-09T14:40:43;37.60;33.00
22795;DHT22;11564;50.920;11.612;2023-04-09T14:43:10;37.90;33.10
22795;DHT22;11564;50.920;11.612;2023-04-09T14:45:35;36.70;34.40
22795;DHT22;11564;50.920;11.612;2023-04-09T14:48:01;33.40;35.40
22795;DHT22;11564;50.920;11.612;2023-04-09T14:50:29;30.30;37.90
22795;DHT22;11564;50.920;11.612;2023-04-09T14:52:56;27.80;40.20
22795;DHT22;11564;50.920;11.612;2023-04-09T14:55:22;26.10;41.90
22795;DHT22;11564;50.920;11.612;2023-04-09T14:57:48;25.80;44.30
22795;DHT22;11564;50.920;11.612;2023-04-09T15:00:14;28.40;41.30
22795;DHT22;11564;50.920;11.612;2023-04-09T15:02:40;31.40;38.50
22795;DHT22;11564;50.920;11.612;2023-04-09T15:05:06;32.00;37.60
22795;DHT22;11564;50.920;11.612;2023-04-09T15:07:32;33.20;36.80
22795;DHT22;11564;50.920;11.612;2023-04-09T15:09:58;34.30;35.40
22795;DHT22;11564;50.920;11.612;2023-04-09T15:14:51;36.20;34.90
22795;DHT22;11564;50.920;11.612;2023-04-09T15:17:16;36.60;33.90
22795;DHT22;11564;50.920;11.612;2023-04-09T15:19:42;35.90;33.50
22795;DHT22;11564;50.920;11.612;2023-04-09T15:22:07;33.10;35.60
22795;DHT22;11564;50.920;11.612;2023-04-09T15:24:33;31.70;37.30
22795;DHT22;11564;50.920;11.612;2023-04-09T15:26:59;30.30;38.20
22795;DHT22;11564;50.920;11.612;2023-04-09T15:29:25;31.20;38.00
22795;DHT22;11564;50.920;11.612;2023-04-09T15:31:54;32.30;37.00
22795;DHT22;11564;50.920;11.612;2023-04-09T15:34:19;34.10;35.40
22795;DHT22;11564;50.920;11.612;2023-04-09T15:36:45;33.40;35.20
22795;DHT22;11564;50.920;11.612;2023-04-09T15:39:11;33.10;35.90
22795;DHT22;11564;50.920;11.612;2023-04-09T15:41:36;33.00;36.20
22795;DHT22;11564;50.920;11.612;2023-04-09T15:44:03;31.20;37.70
22795;DHT22;11564;50.920;11.612;2023-04-09T15:46:28;29.30;40.30
22795;DHT22;11564;50.920;11.612;2023-04-09T15:48:54;27.00;42.40
22795;DHT22;11564;50.920;11.612;2023-04-09T15:51:20;27.10;43.00
22795;DHT22;11564;50.920;11.612;2023-04-09T15:53:46;28.30;41.70